createdAt,value
2018-06-29T00:01:02.955Z,73.73
2018-06-29T00:03:31.784Z,73.60
2018-06-29T00:06:00.591Z,73.76
2018-06-29T00:08:29.512Z,73.57
2018-06-29T00:10:58.399Z,74.11
2018-06-29T00:13:27.224Z,74.36
2018-06-29T00:15:56.003Z,75.14
2018-06-29T00:18:25.279Z,75.69
2018-06-29T00:20:54.134Z,75.78
2018-06-29T00:23:22.892Z,74.78
2018-06-29T00:25:51.705Z,75.49
2018-06-29T00:28:20.467Z,75.94
2018-06-29T00:30:49.123Z,76.29
2018-06-29T00:33:18.145Z,76.07
2018-06-29T00:35:46.855Z,78.10
2018-06-29T00:38:15.660Z,77.74
2018-06-29T00:40:44.525Z,77.19
2018-06-29T00:43:13.154Z,79.34
2018-06-29T00:45:48.056Z,78.42
2018-06-29T00:48:16.835Z,77.39
2018-06-29T00:50:45.461Z,77.44
2018-06-29T00:53:14.549Z,76.64
2018-06-29T00:55:43.411Z,77.62
2018-06-29T00:58:12.223Z,76.97
2018-06-29T01:00:41.077Z,78.09
2018-06-29T01:03:09.880Z,78.12
2018-06-29T01:05:38.567Z,76.54
2018-06-29T01:08:07.679Z,79.08
2018-06-29T01:10:36.772Z,78.80
2018-06-29T01:13:05.646Z,77.73
2018-06-29T01:15:34.470Z,77.05
2018-06-29T01:18:03.292Z,77.14
2018-06-29T01:20:32.202Z,78.54
2018-06-29T01:23:00.999Z,79.60
2018-06-29T01:25:29.823Z,78.46
2018-06-29T01:27:58.594Z,78.87
2018-06-29T01:30:27.376Z,78.69
2018-06-29T01:32:56.298Z,78.46
2018-06-29T01:35:25.060Z,79.33
2018-06-29T01:37:53.731Z,78.99
2018-06-29T01:40:22.552Z,78.20
2018-06-29T01:42:51.395Z,78.47
2018-06-29T01:45:26.138Z,79.25
2018-06-29T01:47:54.992Z,79.03
2018-06-29T01:50:23.786Z,79.39
2018-06-29T01:52:53.009Z,79.37
2018-06-29T01:55:21.863Z,80.46
2018-06-29T01:57:50.741Z,81.29
2018-06-29T02:00:19.575Z,79.78
2018-06-29T02:02:48.430Z,79.23
2018-06-29T02:05:17.220Z,78.92
2018-06-29T02:07:46.127Z,79.70
2018-06-29T02:10:15.175Z,80.06
2018-06-29T02:12:44.016Z,79.45
2018-06-29T02:15:12.752Z,79.41
2018-06-29T02:17:41.550Z,79.38
2018-06-29T02:20:10.391Z,79.36
2018-06-29T02:22:39.236Z,79.71
2018-06-29T02:25:07.894Z,79.40
2018-06-29T02:27:36.995Z,80.08
2018-06-29T02:30:06.407Z,81.17
2018-06-29T02:32:35.251Z,80.42
2018-06-29T02:35:04.303Z,81.37
2018-06-29T02:37:33.147Z,81.54
2018-06-29T02:40:02.371Z,81.31
2018-06-29T02:42:31.155Z,81.60
2018-06-29T02:45:00.085Z,82.00
2018-06-29T02:47:29.239Z,84.66
2018-06-29T02:49:58.075Z,82.21
2018-06-29T02:52:26.838Z,81.44
2018-06-29T02:54:55.632Z,81.53
2018-06-29T02:57:24.541Z,81.64
2018-06-29T02:59:53.364Z,81.19
2018-06-29T03:02:22.152Z,80.55
2018-06-29T03:04:50.973Z,81.68
2018-06-29T03:07:19.770Z,81.62
2018-06-29T03:09:48.726Z,81.01
2018-06-29T03:12:17.520Z,80.68
2018-06-29T03:14:46.363Z,82.66
2018-06-29T03:17:15.155Z,81.28
2018-06-29T03:19:44.331Z,83.62
2018-06-29T03:22:13.222Z,82.48
2018-06-29T03:24:42.326Z,81.63
2018-06-29T03:27:11.316Z,82.15
2018-06-29T03:29:40.086Z,82.11
2018-06-29T03:32:08.961Z,81.97
2018-06-29T03:34:37.781Z,81.74
2018-06-29T03:37:06.882Z,82.23
2018-06-29T03:39:35.619Z,82.93
2018-06-29T03:42:04.500Z,82.52
2018-06-29T03:44:33.327Z,82.13
2018-06-29T03:47:02.286Z,81.38
2018-06-29T03:49:30.936Z,78.89
2018-06-29T03:51:59.787Z,76.56
2018-06-29T03:54:28.867Z,75.22
2018-06-29T03:56:57.751Z,73.82
2018-06-29T03:59:26.581Z,73.11
2018-06-29T04:01:55.415Z,72.24
2018-06-29T04:04:24.185Z,72.92
2018-06-29T04:06:53.050Z,74.14
2018-06-29T04:09:21.839Z,75.93
2018-06-29T04:11:50.615Z,78.07
2018-06-29T04:14:19.504Z,80.40
2018-06-29T04:16:48.342Z,78.67
2018-06-29T04:19:17.113Z,76.44
2018-06-29T04:21:46.010Z,75.84
2018-06-29T04:24:14.764Z,73.33
2018-06-29T04:26:43.580Z,72.11
2018-06-29T04:29:12.390Z,70.43
2018-06-29T04:31:41.173Z,69.39
2018-06-29T04:34:10.046Z,69.47
2018-06-29T04:36:38.725Z,72.24
2018-06-29T04:39:09.862Z,70.98
2018-06-29T04:41:38.816Z,69.51
2018-06-29T04:44:07.684Z,68.93
2018-06-29T04:46:36.485Z,70.02
2018-06-29T04:49:05.464Z,71.66
2018-06-29T04:51:34.261Z,71.44
2018-06-29T04:54:03.109Z,70.14
2018-06-29T04:56:31.941Z,69.30
2018-06-29T04:59:00.807Z,68.21
2018-06-29T05:01:29.745Z,69.72
2018-06-29T05:03:58.584Z,69.47
2018-06-29T05:06:27.380Z,67.77
2018-06-29T05:08:56.179Z,68.14
2018-06-29T05:11:25.018Z,68.33
2018-06-29T05:13:53.945Z,68.65
2018-06-29T05:16:22.723Z,67.30
2018-06-29T05:18:51.568Z,67.13
2018-06-29T05:21:20.618Z,66.65
2018-06-29T05:23:49.467Z,65.23
2018-06-29T05:26:18.304Z,65.10
2018-06-29T05:28:47.090Z,66.84
2018-06-29T05:31:15.929Z,65.68
2018-06-29T05:33:49.136Z,66.84
2018-06-29T05:36:18.007Z,67.95
2018-06-29T05:38:46.853Z,67.26
2018-06-29T05:41:15.784Z,65.71
2018-06-29T05:43:44.612Z,63.88
2018-06-29T05:46:13.292Z,64.58
2018-06-29T05:48:42.175Z,63.40
2018-06-29T05:51:11.185Z,62.57
2018-06-29T05:53:39.801Z,63.40
2018-06-29T05:56:08.652Z,62.51
2018-06-29T05:58:37.509Z,62.84
2018-06-29T06:01:09.408Z,62.23
2018-06-29T06:03:38.311Z,61.71
2018-06-29T06:06:07.528Z,61.82
2018-06-29T06:08:36.408Z,59.91
2018-06-29T06:11:05.621Z,58.44
2018-06-29T06:13:34.421Z,57.23
2018-06-29T06:16:03.350Z,57.20
2018-06-29T06:18:32.180Z,57.61
2018-06-29T06:21:00.966Z,56.85
2018-06-29T06:23:29.654Z,53.83
2018-06-29T06:25:58.428Z,53.75
2018-06-29T06:28:27.450Z,53.04
2018-06-29T06:30:56.556Z,54.59
2018-06-29T06:33:25.430Z,52.78
2018-06-29T06:35:54.049Z,53.06
2018-06-29T06:38:22.891Z,52.28
2018-06-29T06:40:51.763Z,53.00
2018-06-29T06:43:20.579Z,52.10
2018-06-29T06:45:55.322Z,50.27
2018-06-29T06:48:24.157Z,50.22
2018-06-29T06:50:52.998Z,50.15
2018-06-29T06:53:21.641Z,49.35
2018-06-29T06:55:50.455Z,48.54
2018-06-29T06:58:19.345Z,48.83
2018-06-29T07:00:48.139Z,47.87
2018-06-29T07:03:17.085Z,46.62
2018-06-29T07:05:45.894Z,47.83
2018-06-29T07:08:14.693Z,47.92
2018-06-29T07:10:43.555Z,47.91
2018-06-29T07:13:12.344Z,46.60
2018-06-29T07:15:41.219Z,46.48
2018-06-29T07:18:10.179Z,47.33
2018-06-29T07:20:38.835Z,50.31
2018-06-29T07:23:07.648Z,47.34
2018-06-29T07:25:36.483Z,47.75
2018-06-29T07:28:05.649Z,47.52
2018-06-29T07:30:34.314Z,47.47
2018-06-29T07:33:03.085Z,47.09
2018-06-29T07:35:31.899Z,46.13
2018-06-29T07:38:00.716Z,45.67
2018-06-29T07:40:29.641Z,46.55
2018-06-29T07:42:58.727Z,46.43
2018-06-29T07:45:33.654Z,47.50
2018-06-29T07:48:02.501Z,46.70
2018-06-29T07:50:31.406Z,46.75
2018-06-29T07:53:00.211Z,47.65
2018-06-29T07:55:29.099Z,46.02
2018-06-29T07:57:57.927Z,45.07
2018-06-29T08:00:26.810Z,45.19
2018-06-29T08:02:55.649Z,46.31
2018-06-29T08:05:24.354Z,44.63
2018-06-29T08:07:53.247Z,45.47
2018-06-29T08:10:21.925Z,46.58
2018-06-29T08:12:50.765Z,46.05
2018-06-29T08:15:19.465Z,45.54
2018-06-29T08:17:48.312Z,45.22
2018-06-29T08:20:17.183Z,44.04
2018-06-29T08:22:46.022Z,45.21
2018-06-29T08:25:15.979Z,44.50
2018-06-29T08:27:44.925Z,45.79
2018-06-29T08:30:14.279Z,44.42
2018-06-29T08:32:43.270Z,43.41
2018-06-29T08:35:12.056Z,46.22
2018-06-29T08:37:40.902Z,45.63
2018-06-29T08:40:10.246Z,44.36
2018-06-29T08:42:39.161Z,45.64
2018-06-29T08:45:09.370Z,43.36
2018-06-29T08:47:38.143Z,45.69
2018-06-29T08:50:07.022Z,43.89
2018-06-29T08:52:35.730Z,42.98
2018-06-29T08:55:04.999Z,42.87
2018-06-29T08:57:33.909Z,45.65
2018-06-29T09:00:02.887Z,45.21
2018-06-29T09:02:31.762Z,43.24
2018-06-29T09:05:00.687Z,42.39
2018-06-29T09:07:29.507Z,41.55
2018-06-29T09:09:58.341Z,41.51
2018-06-29T09:12:27.120Z,43.32
2018-06-29T09:14:55.959Z,43.23
2018-06-29T09:17:24.867Z,43.17
2018-06-29T09:19:53.673Z,43.56
2018-06-29T09:22:22.707Z,41.65
2018-06-29T09:24:51.554Z,42.33
2018-06-29T09:27:20.343Z,41.35
2018-06-29T09:29:49.431Z,41.20
2018-06-29T09:32:18.212Z,40.80
2018-06-29T09:34:47.078Z,40.84
2018-06-29T09:37:15.883Z,41.95
2018-06-29T09:39:44.732Z,43.68
2018-06-29T09:42:13.567Z,43.84
2018-06-29T09:44:42.422Z,42.70
2018-06-29T09:47:11.196Z,42.28
2018-06-29T09:49:39.825Z,39.29
2018-06-29T09:52:08.752Z,40.03
2018-06-29T09:54:37.649Z,41.14
2018-06-29T09:57:06.269Z,40.54
2018-06-29T09:59:35.176Z,41.42
2018-06-29T10:02:04.170Z,41.49
2018-06-29T10:04:32.993Z,41.52
2018-06-29T10:07:02.327Z,41.37
2018-06-29T10:09:30.945Z,40.93
2018-06-29T10:11:59.791Z,42.24
2018-06-29T10:14:28.612Z,42.80
2018-06-29T10:16:57.503Z,41.98
2018-06-29T10:19:26.396Z,42.85
2018-06-29T10:21:55.232Z,42.76
2018-06-29T10:24:24.070Z,41.00
2018-06-29T10:26:52.910Z,40.48
2018-06-29T10:29:21.718Z,39.79
2018-06-29T10:31:50.597Z,40.89
2018-06-29T10:34:19.389Z,40.70
2018-06-29T10:36:48.322Z,42.13
2018-06-29T10:39:17.139Z,40.80
2018-06-29T10:41:46.060Z,41.74
2018-06-29T10:44:14.887Z,41.21
2018-06-29T10:46:43.529Z,41.38
2018-06-29T10:49:12.369Z,40.58
2018-06-29T10:51:41.204Z,40.74
2018-06-29T10:54:10.013Z,40.91
2018-06-29T10:56:38.929Z,41.81
2018-06-29T10:59:07.590Z,40.77
2018-06-29T11:01:36.448Z,42.39
2018-06-29T11:04:05.301Z,41.40
2018-06-29T11:06:33.952Z,41.96
2018-06-29T11:09:02.992Z,43.58
2018-06-29T11:11:31.762Z,42.67
2018-06-29T11:14:00.462Z,42.65
2018-06-29T11:16:29.069Z,42.36
2018-06-29T11:18:57.935Z,42.10
2018-06-29T11:21:26.827Z,42.15
2018-06-29T11:23:55.690Z,41.14
2018-06-29T11:26:24.516Z,39.24
2018-06-29T11:28:53.326Z,39.22
2018-06-29T11:31:22.158Z,37.41
2018-06-29T11:33:51.035Z,36.89
2018-06-29T11:36:19.817Z,35.55
2018-06-29T11:38:48.644Z,36.14
2018-06-29T11:41:17.474Z,37.06
2018-06-29T11:43:46.324Z,36.49
2018-06-29T11:46:15.226Z,36.07
2018-06-29T11:48:44.155Z,36.09
2018-06-29T11:51:12.895Z,36.84
2018-06-29T11:53:41.853Z,39.12
2018-06-29T11:56:11.000Z,39.61
2018-06-29T11:58:39.936Z,39.63
2018-06-29T12:01:08.802Z,39.48
2018-06-29T12:03:37.618Z,40.34
2018-06-29T12:06:06.488Z,40.52
2018-06-29T12:08:35.279Z,40.02
2018-06-29T12:11:04.222Z,40.43
2018-06-29T12:13:32.901Z,42.53
2018-06-29T12:16:02.012Z,41.17
2018-06-29T12:18:31.126Z,41.82
2018-06-29T12:20:59.968Z,43.03
2018-06-29T12:23:28.750Z,43.50
2018-06-29T12:25:58.044Z,43.28
2018-06-29T12:28:26.838Z,44.17
2018-06-29T12:30:55.663Z,44.19
2018-06-29T12:33:24.455Z,43.76
2018-06-29T12:35:53.340Z,44.57
2018-06-29T12:38:22.124Z,44.27
2018-06-29T12:40:51.032Z,44.29
2018-06-29T12:43:19.908Z,45.74
2018-06-29T12:45:51.672Z,45.56
2018-06-29T12:48:20.517Z,45.12
2018-06-29T12:50:49.364Z,44.29
2018-06-29T12:53:18.139Z,45.37
2018-06-29T12:55:46.996Z,45.05
2018-06-29T12:58:16.139Z,44.87
2018-06-29T13:00:44.972Z,44.35
2018-06-29T13:03:13.780Z,44.71
2018-06-29T13:05:42.715Z,44.68
2018-06-29T13:08:11.295Z,44.45
2018-06-29T13:10:40.061Z,44.37
2018-06-29T13:13:08.925Z,44.84
2018-06-29T13:15:37.717Z,44.88
2018-06-29T13:18:06.585Z,45.41
2018-06-29T13:20:35.376Z,44.71
2018-06-29T13:23:04.214Z,44.36
2018-06-29T13:25:33.251Z,43.96
2018-06-29T13:28:02.430Z,43.75
2018-06-29T13:30:31.219Z,43.38
2018-06-29T13:33:00.045Z,43.14
2018-06-29T13:35:28.864Z,43.38
2018-06-29T13:37:57.791Z,44.62
2018-06-29T13:40:26.728Z,43.87
2018-06-29T13:42:55.564Z,43.32
2018-06-29T13:45:24.639Z,44.72
2018-06-29T13:47:53.624Z,44.65
2018-06-29T13:50:22.464Z,44.35
2018-06-29T13:52:51.237Z,43.80
2018-06-29T13:55:20.352Z,43.70
2018-06-29T13:57:49.159Z,43.78
2018-06-29T14:00:18.098Z,43.51
2018-06-29T14:02:46.943Z,44.46
2018-06-29T14:05:15.743Z,44.75
2018-06-29T14:07:44.559Z,44.15
2018-06-29T14:10:13.369Z,44.65
2018-06-29T14:12:42.168Z,45.12
2018-06-29T14:15:11.056Z,45.58
2018-06-29T14:17:39.823Z,44.88
2018-06-29T14:20:08.743Z,46.04
2018-06-29T14:22:37.680Z,46.00
2018-06-29T14:25:06.749Z,45.33
2018-06-29T14:27:35.659Z,46.75
2018-06-29T14:30:04.809Z,46.92
2018-06-29T14:32:33.646Z,46.58
2018-06-29T14:35:02.520Z,47.14
2018-06-29T14:37:31.312Z,47.86
2018-06-29T14:40:00.504Z,47.68
2018-06-29T14:42:29.388Z,47.35
2018-06-29T14:44:58.255Z,47.13
2018-06-29T14:47:27.055Z,49.08
2018-06-29T14:49:55.816Z,48.75
2018-06-29T14:52:24.683Z,48.75
2018-06-29T14:54:53.465Z,48.98
2018-06-29T14:57:23.002Z,49.70
2018-06-29T14:59:51.883Z,49.18
2018-06-29T15:02:20.717Z,48.97
2018-06-29T15:04:49.382Z,47.73
2018-06-29T15:07:18.221Z,48.35
2018-06-29T15:09:46.900Z,48.28
2018-06-29T15:12:15.721Z,48.95
2018-06-29T15:14:44.498Z,48.98
2018-06-29T15:17:13.381Z,49.29
2018-06-29T15:19:42.170Z,49.67
2018-06-29T15:22:11.021Z,49.29
2018-06-29T15:24:39.826Z,50.54
2018-06-29T15:27:08.643Z,50.98
2018-06-29T15:29:37.554Z,50.53
2018-06-29T15:32:06.630Z,50.65
2018-06-29T15:34:35.425Z,50.46
2018-06-29T15:37:04.375Z,50.92
2018-06-29T15:39:33.163Z,51.51
2018-06-29T15:42:02.066Z,51.31
2018-06-29T15:44:30.839Z,50.96
2018-06-29T15:46:59.693Z,52.53
2018-06-29T15:49:28.545Z,52.68
2018-06-29T15:51:57.344Z,53.12
2018-06-29T15:54:26.040Z,52.31
2018-06-29T15:56:54.792Z,52.65
2018-06-29T15:59:23.735Z,53.04
2018-06-29T16:01:52.547Z,53.52
2018-06-29T16:04:21.234Z,53.32
2018-06-29T16:06:50.143Z,55.37
2018-06-29T16:09:18.931Z,55.07
2018-06-29T16:11:47.686Z,54.30
2018-06-29T16:14:16.498Z,54.43
2018-06-29T16:16:45.193Z,56.07
2018-06-29T16:19:14.088Z,55.31
2018-06-29T16:21:42.702Z,55.91
2018-06-29T16:24:11.496Z,55.44
2018-06-29T16:26:40.283Z,56.20
2018-06-29T16:29:09.194Z,55.83
2018-06-29T16:31:38.035Z,56.55
2018-06-29T16:34:06.887Z,56.74
2018-06-29T16:36:35.674Z,57.16
2018-06-29T16:39:07.737Z,57.54
2018-06-29T16:41:36.532Z,58.74
2018-06-29T16:44:05.642Z,58.51
2018-06-29T16:46:34.448Z,57.72
2018-06-29T16:49:03.242Z,59.26
2018-06-29T16:51:32.012Z,58.90
2018-06-29T16:54:00.820Z,58.83
2018-06-29T16:56:29.705Z,59.15
2018-06-29T16:58:58.596Z,59.32
2018-06-29T17:01:27.380Z,60.23
2018-06-29T17:03:55.986Z,59.65
2018-06-29T17:06:24.623Z,60.60
2018-06-29T17:08:53.470Z,60.92
2018-06-29T17:11:22.280Z,61.18
2018-06-29T17:13:51.368Z,60.53
2018-06-29T17:16:20.218Z,60.67
2018-06-29T17:18:49.185Z,60.77
2018-06-29T17:21:17.904Z,60.88
2018-06-29T17:23:46.636Z,61.32
2018-06-29T17:26:15.467Z,61.31
2018-06-29T17:28:44.242Z,62.62
2018-06-29T17:31:13.427Z,62.44
2018-06-29T17:33:42.335Z,62.40
2018-06-29T17:36:11.448Z,63.58
2018-06-29T17:38:40.363Z,62.68
2018-06-29T17:41:09.517Z,62.73
2018-06-29T17:43:38.359Z,62.93
2018-06-29T17:46:07.259Z,62.61
2018-06-29T17:48:36.133Z,63.16
2018-06-29T17:51:04.874Z,63.35
2018-06-29T17:53:33.979Z,64.37
2018-06-29T17:56:02.873Z,64.48
2018-06-29T17:58:31.939Z,65.26
2018-06-29T18:01:00.778Z,64.97
2018-06-29T18:03:29.607Z,64.69
2018-06-29T18:05:58.405Z,65.06
2018-06-29T18:08:27.599Z,65.51
2018-06-29T18:10:56.540Z,65.87
2018-06-29T18:13:25.432Z,66.43
2018-06-29T18:15:54.264Z,66.42
2018-06-29T18:18:23.089Z,66.73
2018-06-29T18:20:51.899Z,66.34
2018-06-29T18:23:20.837Z,66.89
2018-06-29T18:25:49.863Z,66.87
2018-06-29T18:28:19.354Z,67.05
2018-06-29T18:30:48.097Z,67.55
2018-06-29T18:33:17.857Z,67.11
2018-06-29T18:35:49.906Z,67.70
2018-06-29T18:38:19.107Z,68.28
2018-06-29T18:40:47.788Z,67.71
2018-06-29T18:43:16.761Z,68.53
2018-06-29T18:45:51.632Z,68.70
2018-06-29T18:48:21.149Z,68.12
2018-06-29T18:50:49.974Z,68.90
2018-06-29T18:53:19.749Z,68.42
2018-06-29T18:55:48.980Z,69.18
2018-06-29T18:58:17.871Z,68.91
2018-06-29T19:00:46.816Z,69.17
2018-06-29T19:03:15.683Z,69.61
2018-06-29T19:05:44.787Z,69.39
2018-06-29T19:08:13.566Z,69.51
2018-06-29T19:10:42.401Z,69.87
2018-06-29T19:13:11.247Z,69.96
2018-06-29T19:15:40.475Z,70.13
2018-06-29T19:18:09.782Z,70.06
2018-06-29T19:20:38.672Z,71.19
2018-06-29T19:23:08.215Z,71.03
2018-06-29T19:25:37.096Z,71.35
2018-06-29T19:28:05.931Z,71.47
2018-06-29T19:30:34.806Z,71.80
2018-06-29T19:33:04.126Z,71.49
2018-06-29T19:35:33.260Z,72.31
2018-06-29T19:38:01.972Z,72.78
2018-06-29T19:40:30.810Z,72.83
2018-06-29T19:42:59.601Z,72.74
2018-06-29T19:45:34.883Z,72.69
2018-06-29T19:48:03.877Z,73.31
2018-06-29T19:50:32.748Z,73.23
2018-06-29T19:53:01.569Z,73.61
2018-06-29T19:55:30.406Z,73.71
2018-06-29T19:57:59.267Z,74.22
2018-06-29T20:00:28.196Z,74.76
2018-06-29T20:02:57.055Z,74.59
2018-06-29T20:05:25.855Z,75.13
2018-06-29T20:07:54.759Z,74.67
2018-06-29T20:10:23.551Z,74.98
2018-06-29T20:12:52.475Z,74.55
2018-06-29T20:15:21.296Z,74.46
2018-06-29T20:17:50.185Z,74.23
2018-06-29T20:20:19.116Z,73.44
2018-06-29T20:22:47.910Z,71.13
2018-06-29T20:25:16.775Z,69.63
2018-06-29T20:27:45.588Z,67.05
2018-06-29T20:30:14.450Z,64.04
2018-06-29T20:32:43.511Z,63.22
2018-06-29T20:35:12.325Z,62.02
2018-06-29T20:37:41.050Z,59.05
2018-06-29T20:40:10.196Z,56.84
2018-06-29T20:42:39.087Z,57.04
2018-06-29T20:45:07.892Z,54.96
2018-06-29T20:47:36.767Z,55.06
2018-06-29T20:50:05.789Z,54.20
2018-06-29T20:52:34.581Z,53.80
2018-06-29T20:55:03.572Z,53.58
2018-06-29T20:57:32.388Z,52.75
2018-06-29T21:00:01.284Z,52.79
2018-06-29T21:02:30.123Z,52.25
2018-06-29T21:04:58.936Z,52.29
2018-06-29T21:07:27.699Z,52.46
2018-06-29T21:09:56.548Z,51.78
2018-06-29T21:12:25.416Z,52.44
2018-06-29T21:14:54.324Z,51.96
2018-06-29T21:17:23.116Z,52.65
2018-06-29T21:19:51.966Z,52.02
2018-06-29T21:22:21.015Z,51.99
2018-06-29T21:24:49.831Z,52.48
2018-06-29T21:27:18.735Z,53.19
2018-06-29T21:29:47.566Z,52.51
2018-06-29T21:32:16.427Z,52.80
2018-06-29T21:34:45.275Z,52.82
2018-06-29T21:37:13.975Z,53.28
2018-06-29T21:39:42.897Z,53.10
2018-06-29T21:42:11.719Z,53.57
2018-06-29T21:44:40.510Z,53.41
2018-06-29T21:47:09.392Z,53.90
2018-06-29T21:49:38.177Z,54.50
2018-06-29T21:52:07.152Z,54.56
2018-06-29T21:54:35.941Z,53.67
2018-06-29T21:57:04.897Z,53.80
2018-06-29T21:59:33.555Z,53.89
2018-06-29T22:02:02.708Z,53.67
2018-06-29T22:04:31.621Z,55.13
2018-06-29T22:07:00.479Z,54.96
2018-06-29T22:09:29.273Z,55.32
2018-06-29T22:11:58.212Z,54.97
2018-06-29T22:14:27.028Z,56.00
2018-06-29T22:16:55.969Z,55.58
2018-06-29T22:19:24.754Z,55.30
2018-06-29T22:21:53.572Z,55.60
2018-06-29T22:24:22.362Z,55.71
2018-06-29T22:26:51.277Z,56.47
2018-06-29T22:29:20.126Z,56.74
2018-06-29T22:31:49.003Z,56.08
2018-06-29T22:34:17.774Z,56.62
2018-06-29T22:36:46.660Z,57.03
2018-06-29T22:39:15.311Z,56.37
2018-06-29T22:41:44.199Z,56.73
2018-06-29T22:44:13.035Z,56.93
2018-06-29T22:46:41.689Z,56.32
2018-06-29T22:49:10.511Z,57.21
2018-06-29T22:51:39.165Z,57.47
2018-06-29T22:54:08.134Z,57.30
2018-06-29T22:56:37.302Z,57.42
2018-06-29T22:59:06.205Z,58.16
2018-06-29T23:01:35.014Z,57.61
2018-06-29T23:04:03.880Z,58.61
2018-06-29T23:06:32.716Z,58.82
2018-06-29T23:09:01.517Z,59.00
2018-06-29T23:11:30.292Z,58.23
2018-06-29T23:13:59.115Z,59.41
2018-06-29T23:16:27.899Z,58.44
2018-06-29T23:18:56.842Z,59.07
2018-06-29T23:21:25.596Z,58.88
2018-06-29T23:23:54.266Z,59.32
2018-06-29T23:26:23.055Z,59.90
2018-06-29T23:28:51.867Z,60.28
2018-06-29T23:31:20.752Z,60.38
2018-06-29T23:33:49.406Z,60.42
2018-06-29T23:36:18.808Z,61.12
2018-06-29T23:38:47.581Z,60.92
2018-06-29T23:41:16.379Z,61.04
2018-06-29T23:43:45.238Z,61.01
2018-06-29T23:46:14.039Z,60.97
2018-06-29T23:48:42.835Z,61.01
2018-06-29T23:51:11.659Z,61.26
2018-06-29T23:53:40.443Z,61.94
2018-06-29T23:56:09.387Z,61.68
2018-06-29T23:58:38.200Z,61.83
